CYSJ

Saint John Airport

Saint John, , Canada
TAF CYSJ 182338Z 1900/1912 18010KT 6SM -SN OVC025 TEMPO 1900/1903 21/2SM -SN OVC015 FM190300 20012KT 4SM -SN OVC015 TEMPO 1903/1906 1SM -SN OVC009 BECMG 1903/1905 29012G22KT FM190600 29012G22KT P6SM FEW015 BKN050 TEMPO 1906/1909 4SM -SN FM190900 33015G25KT P6SM FEW020 RMK NXT FCST BY 190600Z
Issued Valid From Valid To
Jan-18 @ 23:38 UTC
(3 hours ago)
Jan-19 @ 00:00 UTC
(2 hours ago)
Jan-19 @ 12:00 UTC
(in 10 hours)
Jan-19 @ 00:00 to Jan-19 @ 03:00
TAF CYSJ 182338Z 1900/1912 18010KT 6SM -SN OVC025
Wind Visibility Clouds Conditions
180° at 10 knots 6 miles
  • Overcast at 2,500' AGL
  • Light Snow
Temporary Jan-19 @ 00:00 to Jan-19 @ 03:00
TEMPO 1900/1903 21/2SM -SN OVC015
Visibility Clouds Conditions
2 1/2 miles
  • Overcast at 1,500' AGL
  • Light Snow
Becoming Jan-19 @ 03:00 to Jan-19 @ 06:00
BECMG 1903/1905 29012G22KT
Wind Visibility Clouds Conditions
290° at 12 knots
 Gusting to 22 knots
4 miles
  • Overcast at 1,500' AGL
  • Light Snow
Temporary Jan-19 @ 03:00 to Jan-19 @ 06:00
TEMPO 1903/1906 1SM -SN OVC009
Visibility Clouds Conditions
1 miles
  • Overcast at 900' AGL
  • Light Snow
From Jan-19 @ 03:00 to Jan-19 @ 12:00
FM190300 20012KT 4SM -SN OVC015
Wind Visibility Clouds Conditions
200° at 12 knots 4 miles
  • Overcast at 1,500' AGL
  • Light Snow
From Jan-19 @ 06:00 to Jan-19 @ 09:00
FM190600 29012G22KT P6SM FEW015 BKN050
Wind Visibility Clouds
290° at 12 knots
 Gusting to 22 knots
Greater than 6 miles
  • Few at 1,500' AGL
  • Broken at 5,000' AGL
Temporary Jan-19 @ 06:00 to Jan-19 @ 09:00
TEMPO 1906/1909 4SM -SN
Visibility Conditions
4 miles
  • Light Snow
From Jan-19 @ 09:00 to Jan-19 @ 12:00
FM190900 33015G25KT P6SM FEW020 RMK NXT FCST BY 190600Z
Wind Visibility Clouds
330° at 15 knots
 Gusting to 25 knots
Greater than 6 miles
  • Few at 2,000' AGL
TAF CYSJ 182338Z 1900/1912 18010KT 6SM -SN OVC025 TEMPO 1900/1903 21/2SM -SN OVC015 FM190300 20012KT 4SM -SN OVC015 TEMPO 1903/1906 1SM -SN OVC009 BECMG 1903/1905 29012G22KT FM190600 29012G22KT P6SM FEW015 BKN050 TEMPO 1906/1909 4SM -SN FM190900 33015G25KT P6SM FEW020 RMK NXT FCST BY 190600Z
Issued Jan-18 @ 23:38 UTC
(3 hours ago)
Valid From Jan-19 @ 00:00 UTC
(2 hours ago)
Valid To Jan-19 @ 12:00 UTC
(in 10 hours)
Jan-19 @ 00:00 - Jan-19 @ 03:00
Wind Visibility
180° at 10 knots 6 miles
Clouds
  • Overcast at 2,500' AGL
Conditions
  • Light Snow
Temporary Jan-19 @ 00:00 - Jan-19 @ 03:00
Clouds
  • Overcast at 1,500' AGL
Conditions
  • Light Snow
Becoming Jan-19 @ 03:00 - Jan-19 @ 06:00
Wind Visibility
290° at 12 knots
 Gusting to 22 knots
4 miles
Clouds
  • Overcast at 1,500' AGL
Conditions
  • Light Snow
Temporary Jan-19 @ 03:00 - Jan-19 @ 06:00
Clouds
  • Overcast at 900' AGL
Conditions
  • Light Snow
From Jan-19 @ 03:00 - Jan-19 @ 12:00
Wind Visibility
200° at 12 knots 4 miles
Clouds
  • Overcast at 1,500' AGL
Conditions
  • Light Snow
From Jan-19 @ 06:00 - Jan-19 @ 09:00
Wind Visibility
290° at 12 knots
 Gusting to 22 knots
Greater than 6 miles
Clouds
  • Few at 1,500' AGL
  • Broken at 5,000' AGL
Temporary Jan-19 @ 06:00 - Jan-19 @ 09:00
Conditions
  • Light Snow
From Jan-19 @ 09:00 - Jan-19 @ 12:00
Wind Visibility
330° at 15 knots
 Gusting to 25 knots
Greater than 6 miles
Clouds
  • Few at 2,000' AGL